Presidente Kennedy, Brazil
Current Conditions -  °F | °C
As of 7:00 AM on Friday 19 Dec 2014 (Local Time) from SBPJ Reporting Station
Scattered Clouds Scattered Clouds  
Wind Chill: 75°   Ceiling: Unl
Heat Index: 75°   Visibility: 6mi
Dew Point: 72°   Wind: 9mph
Humidity: 89%   Direction: 300°WNW
Pressure: 29.88"   Gusts: NA
Location:  8.54°S, 48.51°W
Report Text: SBPJ 191000Z 30008KT 9999 FEW012 SCT100 24/22 Q1012
Loading
Personal Weather Stations






























Interactive Weather Map New forecast layout! Learn more

10-Day Weather Forecast

Advertisements
Track Severe Weather on mobile